Airfield :
LOGIN :

Register | Disclaimer

   EN    FR    IT 

 










Legend :    VFR   Marginal VFR   IFR   Intensive IFR   Very Intensive IFR
Visi :
Ceiling :
>= 8 km
>= 3000ft
5 to 8 km
1000 to 3000 ft
1500m to 5 km
500 to 1000 ft
800 to 1500m
200 to 500 ft
< 800m
< 200 ft
Symbols :   Thunderstorms  Fog  Heavy snow  Heavy precipitations  Wind > 20 kt
SIGMETs :     Misc.  Thunderstorms  Icing  Turbulence  Mountain Waves  Volcanic Ashes






- Airport Elevation : 327 ft
- IATA code : BHX


EGBB - Birmingham

CURRENT METAR :
  • 311620Z 09012KT CAVOK 23/05 Q1022

EXPIRED METARs :
  • 311550Z 10011KT CAVOK 23/05 Q1022
  • 311520Z 09010KT 030V120 CAVOK 24/05 Q1022
  • 311450Z 08009KT 040V120 CAVOK 23/05 Q1022
  • 311420Z 11011KT 080V150 CAVOK 24/06 Q1022
  • 311350Z 08010KT 050V130 CAVOK 23/06 Q1023

TAF AMD TAF EGBB
Valid from the 31 at 12:00 until the 01 at 12:00 UTC


311237Z 3112/0112 09008KT CAVOK
ATIS : +44 121 780 0910



MET'MAP, your aeronautical weather chart ! - Copyright ORBIFLY December 2007 - Disclaimer

ORBIFLY MET'MAP TEAM :

Programming & Development : Alexandra Zaïnal
Concept & original design : Baudouin d'Aumeries
Assistance for programming : Marc-Olivier Méhu
Technical & hardware support : Manuel Goepfert

Contact : metmap@orbifly.com




SOURCES & CREDITS :

   NOAA